PKNJT WABI-WAYY
Flight info
| Callsign | PKNJT |
|---|---|
| Flight time | 0h 44m |
| Altitude | 9000 |
| Route | TMK |
| Aircraft | B58T/L-V/N |
Departure
| Time | 2026-05-04 11:20 |
|---|---|
| Airport | Douw Aturure Airport (WABI) |
Arrival
| Time | 2026-05-04 12:04 |
|---|---|
| Airport | Mozes Kilangin Airport (WAYY) |
| Time | Latitude | Longitude | Altitude | Speed | Heading |
|---|---|---|---|---|---|
| 2026-05-04 11:05 | -3.36832 | 135.49809 | 39 ft | 0 kts | 160° |
| 2026-05-04 11:06 | -3.36836 | 135.49810 | 36 ft | 3 kts | 164° |
| 2026-05-04 11:06 | -3.36868 | 135.49809 | 36 ft | 0 kts | 204° |
| 2026-05-04 11:10 | -3.36832 | 135.49809 | 36 ft | 0 kts | 160° |
| 2026-05-04 11:13 | -3.36845 | 135.49824 | 36 ft | 3 kts | 71° |
| 2026-05-04 11:13 | -3.36803 | 135.49820 | 36 ft | 6 kts | 341° |
| 2026-05-04 11:13 | -3.36776 | 135.49797 | 36 ft | 5 kts | 303° |
| 2026-05-04 11:13 | -3.36775 | 135.49794 | 36 ft | 0 kts | 301° |
| 2026-05-04 11:19 | -3.36710 | 135.49618 | 35 ft | 41 kts | 342° |
| 2026-05-04 11:19 | -3.36205 | 135.49446 | 61 ft | 100 kts | 340° |
| 2026-05-04 11:19 | -3.35542 | 135.49194 | 279 ft | 112 kts | 338° |
| 2026-05-04 11:19 | -3.34828 | 135.48750 | 371 ft | 130 kts | 309° |
| 2026-05-04 11:20 | -3.34708 | 135.47866 | 538 ft | 144 kts | 243° |
| 2026-05-04 11:20 | -3.35625 | 135.47549 | 683 ft | 146 kts | 162° |
| 2026-05-04 11:20 | -3.36500 | 135.47897 | 1124 ft | 137 kts | 152° |
| 2026-05-04 11:20 | -3.37355 | 135.48416 | 1338 ft | 143 kts | 144° |
| 2026-05-04 11:22 | -3.40769 | 135.53805 | 3491 ft | 135 kts | 106° |
| 2026-05-04 11:22 | -3.40866 | 135.54728 | 3756 ft | 136 kts | 78° |
| 2026-05-04 11:23 | -3.40562 | 135.55632 | 4018 ft | 135 kts | 71° |
| 2026-05-04 11:23 | -3.40419 | 135.56526 | 4345 ft | 135 kts | 95° |
| 2026-05-04 11:24 | -3.42310 | 135.61513 | 5533 ft | 164 kts | 194° |
| 2026-05-04 11:25 | -3.43416 | 135.61548 | 5727 ft | 162 kts | 152° |
| 2026-05-04 11:25 | -3.44130 | 135.62364 | 5909 ft | 159 kts | 107° |
| 2026-05-04 11:25 | -3.44396 | 135.63443 | 6086 ft | 161 kts | 99° |
| 2026-05-04 11:26 | -3.44745 | 135.65687 | 6411 ft | 167 kts | 97° |
| 2026-05-04 11:27 | -3.45816 | 135.74125 | 7552 ft | 179 kts | 95° |
| 2026-05-04 11:28 | -3.45976 | 135.75359 | 7719 ft | 180 kts | 96° |
| 2026-05-04 11:28 | -3.46136 | 135.76602 | 7884 ft | 180 kts | 96° |
| 2026-05-04 11:28 | -3.46290 | 135.77845 | 8045 ft | 180 kts | 96° |
| 2026-05-04 11:28 | -3.46438 | 135.79086 | 8209 ft | 180 kts | 96° |
| 2026-05-04 11:29 | -3.46587 | 135.80328 | 8381 ft | 180 kts | 95° |
| 2026-05-04 11:29 | -3.46738 | 135.81573 | 8557 ft | 180 kts | 96° |
| 2026-05-04 11:29 | -3.46894 | 135.82825 | 8742 ft | 182 kts | 96° |
| 2026-05-04 11:29 | -3.47060 | 135.84092 | 8855 ft | 187 kts | 98° |
| 2026-05-04 11:31 | -3.51009 | 135.92994 | 8975 ft | 206 kts | 114° |
| 2026-05-04 11:33 | -3.59696 | 135.96185 | 8988 ft | 208 kts | 181° |
| 2026-05-04 11:33 | -3.61149 | 135.96146 | 8984 ft | 210 kts | 182° |
| 2026-05-04 11:33 | -3.62622 | 135.96090 | 9002 ft | 214 kts | 182° |
| 2026-05-04 11:34 | -3.64120 | 135.96026 | 9002 ft | 217 kts | 182° |
| 2026-05-04 11:34 | -3.65636 | 135.95958 | 9009 ft | 219 kts | 182° |
| 2026-05-04 11:34 | -3.67162 | 135.95887 | 9006 ft | 220 kts | 182° |
| 2026-05-04 11:34 | -3.68719 | 135.95815 | 9010 ft | 221 kts | 182° |
| 2026-05-04 11:35 | -3.70236 | 135.95745 | 9007 ft | 222 kts | 182° |
| 2026-05-04 11:35 | -3.71774 | 135.95672 | 9009 ft | 221 kts | 183° |
| 2026-05-04 11:35 | -3.73301 | 135.95599 | 9021 ft | 220 kts | 183° |
| 2026-05-04 11:35 | -3.74826 | 135.95527 | 9021 ft | 219 kts | 183° |
| 2026-05-04 11:36 | -3.76350 | 135.95453 | 9020 ft | 219 kts | 182° |
| 2026-05-04 11:36 | -3.77866 | 135.95381 | 9015 ft | 218 kts | 182° |
| 2026-05-04 11:36 | -3.79381 | 135.95310 | 9016 ft | 218 kts | 183° |
| 2026-05-04 11:36 | -3.80893 | 135.95238 | 9024 ft | 217 kts | 183° |
| 2026-05-04 11:37 | -3.82405 | 135.95160 | 9022 ft | 217 kts | 183° |
| 2026-05-04 11:37 | -3.83915 | 135.95085 | 9038 ft | 218 kts | 182° |
| 2026-05-04 11:37 | -3.85424 | 135.95009 | 9149 ft | 215 kts | 183° |
| 2026-05-04 11:37 | -3.86903 | 135.94936 | 9292 ft | 212 kts | 182° |
| 2026-05-04 11:38 | -3.88366 | 135.94864 | 9445 ft | 209 kts | 182° |
| 2026-05-04 11:38 | -3.89789 | 135.94972 | 9591 ft | 206 kts | 161° |
| 2026-05-04 11:38 | -3.91111 | 135.95507 | 9747 ft | 204 kts | 155° |
| 2026-05-04 11:38 | -3.92397 | 135.96109 | 9897 ft | 204 kts | 154° |
| 2026-05-04 11:39 | -3.93672 | 135.96735 | 10025 ft | 204 kts | 153° |
| 2026-05-04 11:39 | -3.94948 | 135.97372 | 10162 ft | 205 kts | 153° |
| 2026-05-04 11:40 | -4.02619 | 136.01279 | 10981 ft | 206 kts | 152° |
| 2026-05-04 11:41 | -4.03903 | 136.01932 | 11133 ft | 207 kts | 152° |
| 2026-05-04 11:41 | -4.05191 | 136.02585 | 11270 ft | 208 kts | 152° |
| 2026-05-04 11:41 | -4.06454 | 136.03285 | 11403 ft | 208 kts | 149° |
| 2026-05-04 11:41 | -4.07695 | 136.04036 | 11545 ft | 209 kts | 147° |
| 2026-05-04 11:42 | -4.08931 | 136.04811 | 11692 ft | 210 kts | 146° |
| 2026-05-04 11:42 | -4.10160 | 136.05603 | 11839 ft | 211 kts | 145° |
| 2026-05-04 11:42 | -4.11390 | 136.06417 | 12001 ft | 213 kts | 145° |
| 2026-05-04 11:42 | -4.12639 | 136.07247 | 12203 ft | 218 kts | 144° |
| 2026-05-04 11:43 | -4.13870 | 136.08148 | 12388 ft | 218 kts | 136° |
| 2026-05-04 11:43 | -4.14886 | 136.09259 | 12527 ft | 216 kts | 127° |
| 2026-05-04 11:43 | -4.15758 | 136.10474 | 12674 ft | 214 kts | 122° |
| 2026-05-04 11:43 | -4.16535 | 136.11738 | 12818 ft | 213 kts | 120° |
| 2026-05-04 11:44 | -4.17277 | 136.13015 | 12972 ft | 212 kts | 118° |
| 2026-05-04 11:44 | -4.17975 | 136.14314 | 13106 ft | 211 kts | 116° |
| 2026-05-04 11:44 | -4.18615 | 136.15640 | 13255 ft | 212 kts | 114° |
| 2026-05-04 11:44 | -4.19226 | 136.16980 | 13413 ft | 212 kts | 114° |
| 2026-05-04 11:45 | -4.19839 | 136.18323 | 13566 ft | 212 kts | 114° |
| 2026-05-04 11:45 | -4.20460 | 136.19662 | 13709 ft | 212 kts | 114° |
| 2026-05-04 11:45 | -4.21096 | 136.20997 | 13841 ft | 212 kts | 115° |
| 2026-05-04 11:45 | -4.21730 | 136.22334 | 13972 ft | 212 kts | 114° |
| 2026-05-04 11:46 | -4.22352 | 136.23672 | 14109 ft | 212 kts | 114° |
| 2026-05-04 11:46 | -4.22969 | 136.25015 | 14246 ft | 212 kts | 113° |
| 2026-05-04 11:46 | -4.23589 | 136.26362 | 14381 ft | 213 kts | 114° |
| 2026-05-04 11:46 | -4.24218 | 136.27703 | 14518 ft | 213 kts | 114° |
| 2026-05-04 11:47 | -4.24848 | 136.29049 | 14656 ft | 214 kts | 114° |
| 2026-05-04 11:47 | -4.25479 | 136.30396 | 14788 ft | 214 kts | 114° |
| 2026-05-04 11:47 | -4.26113 | 136.31751 | 14880 ft | 216 kts | 114° |
| 2026-05-04 11:47 | -4.26752 | 136.33129 | 14928 ft | 220 kts | 114° |
| 2026-05-04 11:48 | -4.27396 | 136.34516 | 14952 ft | 225 kts | 114° |
| 2026-05-04 11:48 | -4.28059 | 136.35950 | 14960 ft | 229 kts | 114° |
| 2026-05-04 11:48 | -4.28738 | 136.37399 | 14964 ft | 231 kts | 114° |
| 2026-05-04 11:48 | -4.29424 | 136.38867 | 14966 ft | 233 kts | 114° |
| 2026-05-04 11:49 | -4.30115 | 136.40345 | 14968 ft | 235 kts | 115° |
| 2026-05-04 11:49 | -4.30807 | 136.41830 | 14970 ft | 236 kts | 114° |
| 2026-05-04 11:49 | -4.31501 | 136.43321 | 14940 ft | 236 kts | 114° |
| 2026-05-04 11:49 | -4.32194 | 136.44818 | 14941 ft | 237 kts | 114° |
| 2026-05-04 11:50 | -4.32890 | 136.46317 | 14941 ft | 237 kts | 114° |
| 2026-05-04 11:50 | -4.33591 | 136.47816 | 14944 ft | 238 kts | 114° |
| 2026-05-04 11:50 | -4.34294 | 136.49319 | 14942 ft | 238 kts | 114° |
| 2026-05-04 11:50 | -4.34998 | 136.50823 | 14942 ft | 238 kts | 114° |
| 2026-05-04 11:51 | -4.35696 | 136.52327 | 14928 ft | 239 kts | 114° |
| 2026-05-04 11:51 | -4.36370 | 136.53777 | 14771 ft | 217 kts | 114° |
| 2026-05-04 11:51 | -4.36969 | 136.55069 | 14602 ft | 194 kts | 114° |
| 2026-05-04 11:51 | -4.37516 | 136.56240 | 14434 ft | 178 kts | 114° |
| 2026-05-04 11:52 | -4.38021 | 136.57323 | 14269 ft | 166 kts | 114° |
| 2026-05-04 11:52 | -4.38497 | 136.58341 | 14111 ft | 157 kts | 114° |
| 2026-05-04 11:52 | -4.38951 | 136.59310 | 13952 ft | 150 kts | 113° |
| 2026-05-04 11:52 | -4.39383 | 136.60245 | 13798 ft | 146 kts | 114° |
| 2026-05-04 11:53 | -4.39806 | 136.61152 | 13644 ft | 142 kts | 113° |
| 2026-05-04 11:53 | -4.40218 | 136.62038 | 13471 ft | 139 kts | 113° |
| 2026-05-04 11:53 | -4.40620 | 136.62911 | 13292 ft | 137 kts | 113° |
| 2026-05-04 11:53 | -4.41025 | 136.63770 | 13124 ft | 136 kts | 113° |
| 2026-05-04 11:55 | -4.44050 | 136.70276 | 11441 ft | 173 kts | 114° |
| 2026-05-04 11:55 | -4.44566 | 136.71382 | 11153 ft | 177 kts | 114° |
| 2026-05-04 11:56 | -4.45086 | 136.72490 | 10865 ft | 179 kts | 115° |
| 2026-05-04 11:56 | -4.45624 | 136.73636 | 10587 ft | 180 kts | 115° |
| 2026-05-04 11:56 | -4.46151 | 136.74764 | 10310 ft | 181 kts | 114° |
| 2026-05-04 11:56 | -4.46689 | 136.75929 | 10031 ft | 182 kts | 114° |
| 2026-05-04 11:57 | -4.47212 | 136.77062 | 9753 ft | 181 kts | 114° |
| 2026-05-04 11:57 | -4.47743 | 136.78206 | 9448 ft | 181 kts | 115° |
| 2026-05-04 11:57 | -4.48276 | 136.79346 | 9146 ft | 180 kts | 115° |
| 2026-05-04 11:57 | -4.48811 | 136.80483 | 8847 ft | 180 kts | 115° |
| 2026-05-04 11:58 | -4.49338 | 136.81611 | 8560 ft | 178 kts | 115° |
| 2026-05-04 11:58 | -4.49859 | 136.82734 | 8266 ft | 174 kts | 115° |
| 2026-05-04 11:58 | -4.50356 | 136.83810 | 7969 ft | 166 kts | 115° |
| 2026-05-04 11:58 | -4.50837 | 136.84844 | 7684 ft | 162 kts | 115° |
| 2026-05-04 11:59 | -4.51311 | 136.85858 | 7405 ft | 159 kts | 115° |
| 2026-05-04 11:59 | -4.51776 | 136.86855 | 7115 ft | 156 kts | 115° |
| 2026-05-04 11:59 | -4.52232 | 136.87840 | 6838 ft | 155 kts | 115° |
| 2026-05-04 11:59 | -4.52680 | 136.88814 | 6559 ft | 153 kts | 115° |
| 2026-05-04 12:00 | -4.53175 | 136.89749 | 6287 ft | 152 kts | 134° |
| 2026-05-04 12:00 | -4.54120 | 136.90139 | 6003 ft | 152 kts | 185° |
| 2026-05-04 12:00 | -4.55020 | 136.89656 | 5717 ft | 152 kts | 235° |
| 2026-05-04 12:00 | -4.55417 | 136.88682 | 5424 ft | 152 kts | 254° |
| 2026-05-04 12:01 | -4.55682 | 136.87652 | 5133 ft | 151 kts | 257° |
| 2026-05-04 12:01 | -4.55912 | 136.86628 | 4824 ft | 151 kts | 258° |
| 2026-05-04 12:02 | -4.57156 | 136.80522 | 3063 ft | 139 kts | 259° |
| 2026-05-04 12:03 | -4.57337 | 136.79609 | 2975 ft | 127 kts | 259° |
| 2026-05-04 12:03 | -4.57500 | 136.78778 | 2930 ft | 115 kts | 259° |
| 2026-05-04 12:03 | -4.57646 | 136.78036 | 2906 ft | 102 kts | 258° |
| 2026-05-04 12:03 | -4.57775 | 136.77375 | 2839 ft | 93 kts | 258° |
| 2026-05-04 12:04 | -4.57858 | 136.76871 | 1593 ft | 73 kts | 5° |
| 2026-05-04 12:04 | -4.57406 | 136.77128 | 116 ft | 0 kts | 297° |
| 2026-05-04 12:04 | -4.57215 | 136.76770 | 518 ft | 173 kts | 297° |
| 2026-05-04 12:04 | -4.56696 | 136.75867 | 840 ft | 144 kts | 295° |
| 2026-05-04 12:05 | -4.56270 | 136.74911 | 826 ft | 150 kts | 284° |
| 2026-05-04 12:05 | -4.56058 | 136.73961 | 1129 ft | 144 kts | 281° |
| 2026-05-04 12:05 | -4.56036 | 136.72943 | 1005 ft | 158 kts | 235° |
| 2026-05-04 12:05 | -4.56917 | 136.72340 | 1137 ft | 148 kts | 203° |
| 2026-05-04 12:06 | -4.57763 | 136.71827 | 1318 ft | 144 kts | 213° |
| 2026-05-04 12:06 | -4.58770 | 136.71782 | 1280 ft | 154 kts | 164° |
| 2026-05-04 12:06 | -4.59706 | 136.72235 | 1471 ft | 144 kts | 154° |
| 2026-05-04 12:06 | -4.60626 | 136.72682 | 1525 ft | 149 kts | 156° |
| 2026-05-04 12:07 | -4.61538 | 136.73195 | 1605 ft | 151 kts | 141° |
| 2026-05-04 12:07 | -4.61932 | 136.74187 | 1482 ft | 169 kts | 88° |
| 2026-05-04 12:07 | -4.61555 | 136.75281 | 1629 ft | 161 kts | 57° |
| 2026-05-04 12:07 | -4.60837 | 136.76146 | 1702 ft | 163 kts | 46° |
| 2026-05-04 12:08 | -4.59960 | 136.76857 | 1789 ft | 163 kts | 30° |
| 2026-05-04 12:08 | -4.58889 | 136.77233 | 1862 ft | 165 kts | 5° |
| 2026-05-04 12:08 | -4.57796 | 136.77068 | 1959 ft | 162 kts | 333° |
| 2026-05-04 12:08 | -4.57021 | 136.76291 | 1991 ft | 160 kts | 292° |
| 2026-05-04 12:09 | -4.57017 | 136.75188 | 1926 ft | 165 kts | 245° |
| 2026-05-04 12:09 | -4.57845 | 136.74466 | 2011 ft | 161 kts | 193° |
| 2026-05-04 12:09 | -4.58902 | 136.74773 | 1898 ft | 172 kts | 135° |
| 2026-05-04 12:09 | -4.59185 | 136.75912 | 1837 ft | 175 kts | 80° |
| 2026-05-04 12:10 | -4.58845 | 136.77056 | 1998 ft | 168 kts | 70° |
| 2026-05-04 12:10 | -4.58391 | 136.78116 | 2126 ft | 165 kts | 65° |
| 2026-05-04 12:10 | -4.57825 | 136.79127 | 2172 ft | 168 kts | 56° |
| 2026-05-04 12:10 | -4.57068 | 136.80012 | 2256 ft | 166 kts | 47° |
| 2026-05-04 12:11 | -4.56433 | 136.80970 | 2282 ft | 168 kts | 68° |
| 2026-05-04 12:11 | -4.56184 | 136.82124 | 2311 ft | 168 kts | 88° |
| 2026-05-04 12:11 | -4.56156 | 136.83276 | 2477 ft | 162 kts | 88° |
| 2026-05-04 12:11 | -4.56067 | 136.84392 | 2529 ft | 158 kts | 82° |
| 2026-05-04 12:12 | -4.55860 | 136.85497 | 2293 ft | 165 kts | 78° |
| 2026-05-04 12:12 | -4.55584 | 136.86563 | 1992 ft | 158 kts | 76° |
| 2026-05-04 12:12 | -4.55338 | 136.87670 | 1535 ft | 164 kts | 90° |
| 2026-05-04 12:12 | -4.55313 | 136.88801 | 1274 ft | 159 kts | 90° |
| 2026-05-04 12:13 | -4.55296 | 136.89876 | 1167 ft | 150 kts | 90° |
| 2026-05-04 12:14 | -4.52810 | 136.88484 | 106 ft | 78 kts | 302° |
| 2026-05-04 12:15 | -4.52557 | 136.88080 | 105 ft | 60 kts | 303° |
| 2026-05-04 12:15 | -4.52412 | 136.87853 | 106 ft | 29 kts | 301° |
| 2026-05-04 12:15 | -4.52362 | 136.87744 | 107 ft | 7 kts | 172° |
| 2026-05-04 12:15 | -4.52391 | 136.87798 | 106 ft | 13 kts | 114° |
| 2026-05-04 12:16 | -4.52446 | 136.87824 | 106 ft | 19 kts | 209° |
| 2026-05-04 12:16 | -4.52598 | 136.87717 | 107 ft | 17 kts | 216° |
| 2026-05-04 12:16 | -4.52628 | 136.87712 | 107 ft | 5 kts | 103° |
| 2026-05-04 12:16 | -4.52622 | 136.87744 | 107 ft | 5 kts | 75° |
| 2026-05-04 12:17 | -4.52596 | 136.87780 | 107 ft | 6 kts | 45° |
| 2026-05-04 12:17 | -4.52591 | 136.87784 | 107 ft | 0 kts | 46° |
| 2026-05-04 12:30 | -4.52592 | 136.87784 | 104 ft | 0 kts | 46° |